Portada
METAR-TAF:

METAR-TAF

Aeropuertos :

Nuakchot, Mauritania

Aeropuerto Internacional de Nuakchot

latitud: 18-18-36N, longitud: 015-58-11W, altitud: 3 m

Observación

El informe se hizo hace 26 minutos, a las 09:30 UTC
Viento 10 kt del este-noreste
Temperatura 29°C
Humedad 18%
Presión 1012 hPa
Visibilidad 10 km o más
sin nubes por debajo de 1500 m y sin presencia de cumulonimbus.

METAR: GQNO 230930Z 07010KT CAVOK 29/02 Q1012 NOSIG

Hora: 09:56 (09:56 UTC)

Pronóstico

El informe se hizo hace 4 horas y 56 minutos, a las 05:00 UTC
Pronóstico válido del 23 a las 06 UTC al 24 a las 12 UTC
Viento 12 kt del norte-noroeste
Visibilidad: 6000 m
Temporalmente
del 23 a las 10 UTC al 23 a las 18 UTC
Viento 14 kt del este
Evolucionando progresivamente
del 24 a las 08 UTC al 24 a las 10 UTC
Viento 14 kt del este-noreste

TAF: GQNO 230500Z 2306/2412 34012KT 6000 NSC TEMPO 2310/2318 08014KT BECMG 2408/2410 07014KT

Observaciones y pronósticos meteorológicos de más de 4000 aeropuertos (mensajes METAR y TAF).

Los puntos amarillos y rojos representan las estaciones disponibles.

Ponga el ratón en el punto deseado para ver el nombre de la estación.

Haga clic para ver las observaciones y los pronósticos meteorológicos.

Para cambiar el mapa : haga clic en los botones verdes con una cruz de color negro para hacer un zoom, en el botón verde con un guión para alejar o en las flechas verdes para mapas adyacentes.


METAR-TAF: